Acworth, Georgia
Current Conditions -  °F | °C
As of 10:53 PM on Wednesday 28 Jan 2015 (Local Time) from KVPC Reporting Station
Clear Clear  
Wind Chill: 29°   Ceiling: Unl
Heat Index: 29°   Visibility: 10mi
Dew Point: 23°   Wind: 0mph
Humidity: 78%   Direction: NA
Pressure: 30.26"   Gusts: NA
Location:  34.06°N, 84.68°W
Report Text: KVPC 290353Z AUTO 00000KT 10SM CLR M02/M05 A3026 RMK AO2 SLP249 T10171050
Loading
Personal Weather Stations






























Interactive Weather Map New forecast layout! Learn more

10-Day Weather Forecast

Advertisements
Track Severe Weather on mobile